ěÝzenÝ letovÚho provozu ╚eskÚ republiky
OPMET data - Ceska Republika Aktualizace: 31.01.2023 17:31:32  UTC
SIGMET / AIRMET - NIL
Warning / Vystraha - NIL
AIREP - NIL
REG QNH
REGIONAL QNH FORECAST ISSUED 2023-01-31 16:43 AREA VALID FM/TL QNH/HPA/ : LKAA 311700/311800 1012
 
METAR / SPECI
METAR LKBC NIL
METAR LKCS 311730Z AUTO 26015KT 230V290 9999 -RA SCT055/// OVC067/// 03/M02 Q1018=
METAR LKCV 311730Z 25010KT 9999 -RA BKN016 OVC037 02/00 Q1016 NOSIG RMK WHT WHT=
METAR LKKB 311730Z 24019KT 9999 -RA FEW039 OVC060 03/M01 Q1015 NOSIG RMK BLU BLU=
METAR LKKU NIL
METAR LKKV 311730Z 26014G24KT 220V290 6000 -SN BKN006 BKN018 M00/M01 Q1016=
METAR LKLN 311730Z AUTO 25012KT 220V290 9999 -RA SCT019 BKN052 OVC070 02/M01 Q1019=
METAR LKMT 311730Z 21015KT 9999 -RASN SCT009 OVC031 02/M00 Q1015 NOSIG=
METAR LKNA 311730Z 25009KT 4000 -SN FEW008 BKN011 OVC024 00/M01 Q1016 NOSIG RMK GRN GRN=
METAR LKPD 311730Z 25013KT 9999 -RA SCT013 OVC022 02/01 Q1016 NOSIG RMK WHT WHT=
METAR LKPJ 311730Z AUTO 25009KT 9999 -RA SCT052/// BKN068/// OVC083/// 03/M01 Q1016=
METAR LKPR 311730Z 24023G33KT 9999 BKN046 02/M01 Q1015 NOSIG=
METAR LKTB 311730Z 27013KT 9999 BKN027 03/M01 Q1017 NOSIG=
METAR LKVO NIL
TAF
TAF LKBC NIL
TAF LKCS NIL
TAF LKCV 311100Z 3112/0112 26015KT 9999 BKN035      TEMPO 3112/3119 25017G27KT      TEMPO 3114/3122 7000 RA BKN020      PROB30 TEMPO 3118/3122 4000 RASN BKN015      TEMPO 3119/0104 27020G30KT=
TAF LKKB 311100Z 3112/0112 26016KT 9999 BKN035      TEMPO 3112/0102 6000 RA BKN022      TEMPO 3116/0102 26020G30KT      PROB40 TEMPO 3116/3120 2000 RASN BKN012=
TAF LKKU NIL
TAF LKKV 311700Z 3118/0118 26012KT 9999 BKN020      TEMPO 3118/0117 28016G32KT 2500 SHSN BKN005      PROB30 TEMPO 3118/3120 28018G40KT      PROB40 TEMPO 3118/0101 1000 SHSN BKN002      TEMPO 0117/0118 1000 SN BKN002=
TAF LKLN NIL
TAF LKMT 311700Z 3118/0118 23012KT 9999 BKN040      TEMPO 3118/0118 24014G30KT      TEMPO 3118/0118 3000 SHRASN BKN007=
TAF LKNA 311100Z 3112/0112 28014KT 9999 BKN035      TEMPO 3112/0112 30018G28KT      PROB30 TEMPO 3112/0112 -SN BKN023      TEMPO 3118/0112 30022G36KT 3000 SN SCT012TCU BKN020=
TAF LKPD 311100Z 3112/0112 27015KT 9999 BKN040      TEMPO 3112/0112 5000 RA BKN020      PROB40 TEMPO 3115/0103 28017G30KT 3000 RASN BKN010=
TAF LKPJ NIL
TAF LKPR 311700Z 3118/0200 26014KT 9999 BKN027      PROB30 TEMPO 3118/3121 29020G40KT      TEMPO 3118/0103 7000 SHRASN BKN007      PROB30 TEMPO 0111/0118 29020G40KT      PROB30 TEMPO 0116/0200 1500 SHSNRA BKN005=
TAF LKTB 311700Z 3118/0118 29012KT 9999 BKN035      PROB30 TEMPO 3118/0118 30012G22KT      PROB30 TEMPO 3118/0112 7000 SHRASN BKN007      TEMPO 0112/0118 7000 RA BKN007=
TAF LKVO NIL